Valley, WA

8:51 PM PDT on September 17, 2014 (GMT -0700)
405 E. Lincoln | Change Station
CLOSE
Current Station
Personal Weather Station
Location: Chewelah, WA
Elevation: 1671 ft
Nearby Weather Stations

Elev 1671 ft 48.28 °N, 117.71 °W | Updated 1 minute ago

Partly Cloudy
Partly Cloudy
64.7 °F
Feels Like 64.7 °F
N
0.0
Wind Variable Wind from NNW
Gusts 0.0 mph

Today
High -- | Low -- °F
--% Chance of Precip.
Yesterday
High -- | Low -- °F
Precip. -- in
6:31 AM 6:59 PM
Waning Crescent, 30% visible
Pressure 29.67 in
Visibility 10.0 miles
Clouds Clear
Dew Point 50 °F
Humidity 58%
Rainfall 0.00 in
Snow Depth 0 in , 0 in , 0 in
UV 0 out of 12
Pollen 6.90 out of 12
PM2.5 Moderate
Flu Activity Not available.
METAR KDEW 180253Z AUTO 02004KT 10SM CLR 20/07 A2969 RMK AO2 SLP047 T02000067 56008

More Conditions Fewer Conditions

Pressure 29.67 in
Visibility 10.0 miles
Clouds Clear
Dew Point 50 °F
Humidity 58%
Rainfall 0.00 in
Snow Depth 0 in , 0 in , 0 in
UV 0 out of 12
Pollen 6.90 out of 12
PM2.5 Moderate
Flu Activity Not available.
METAR KDEW 180253Z AUTO 02004KT 10SM CLR 20/07 A2969 RMK AO2 SLP047 T02000067 56008

More Conditions Fewer Conditions

10-Day Weather Forecast

Almanac

Astronomy

Sep. 17, 2014 Rise Set
Actual Time 6:31 AM PDT 6:59 PM PDT
Civil Twilight 5:59 AM PDT 7:30 PM PDT
Nautical Twilight 5:22 AM PDT 8:07 PM PDT
Astronomical Twilight 4:44 AM PDT 8:45 PM PDT
Moon 12:15 AM PDT (9/17) 3:30 PM PDT (9/17)
Length of Visible Light 13h 30m
Length of Day
12h 28m
Tomorrow will be 3m 29s shorter.
Waning Crescent, 30% of the Moon is Illuminated
Today
Waning Crescent
Sep 24
New
Oct 1
First Quarter
Oct 8
Full
Oct 15
Last Quarter

Today's Extremes

State Highs State Lows

Community

WunderPhotos

Upload Photos

1,754,283 photos uploaded!

Nearby

Air Quality

  Air Quality AQ Index Pollutant
Yesterday Good
PM10
Yesterday Good
OZONE
Current Moderate
PM2.5
Wednesday Good
PM10
Wednesday Good
OZONE
Thursday Good
PM10
Thursday Good
OZONE

Snow Depth

Station Depth Elevation
Wells Creek 0 in 4200 ft
Green Lake 0 in 6000 ft
Lone Pine 0 in 3800 ft
Spruce Springs 0 in 5700 ft
Mount Crag 0 in 4050 ft

Earthquake Activity

City Distance Mag. Time & Date
No recent earthquake activity has been reported nearby.
Minimum magnitude displayed is 2.5.

Coastal Water Temperatures

Place Temperature
No Stations Reporting

Nearby Weather Stations